aviador You're here:

EPSY Decoded Metar

SZYMANY in POLAND
Report Time2018-05-23 20:30:00
UTC Time2018-05-23 20:41:32
Flight Rules vfr VFR
Wind360° at 04 kt
W.Decomp.*RWY 02: 3.7 kt HW 1.5 kt LCW
Visibility9999 m
Phenomena:N/A
Clouds:N/A
Expected CloudBase > 1,200 ft AGL from Temp-Dew spread
CeilingNone
Temp13°C (ISA -1)
Dew Point10°C (82% RH)
AAT11.6°C
QNH1025 hPa
Density Alt98 ft
Elevation463 ft
Report Wrong Elevation
Raw Report
METAR EPSY 232030Z 36004KT CAVOK 13/10 Q1025=

Extra information for EPSY:More info

Airport Information Weather charts Add Link Nearby Venues Social comments